Time;durP1;ratioP1;P1;durP2;ratioP2;P2;SDS_P1;SDS_P2;PMS_P1;PMS_P2;Temp;Humidity;BMP_temperature;BMP_pressure;BME280_temperature;BME280_humidity;BME280_pressure;Samples;Min_cycle;Max_cycle;Signal;HPM_P1;HPM_P2
2022/03/22 00:01:08;;;;;;;;;;;;;;;;;;4237142;28;957;-65
2022/03/22 00:03:29;;;;;;;;;;;;;;;;;;4237507;27;1061;-65
2022/03/22 00:05:49;;;;;;;;;;;;;;;;;;4236564;28;1988;-65
2022/03/22 00:08:10;;;;;;;;;;;;;;;;;;4238051;28;896;-65
2022/03/22 00:10:32;;;;;;;;;;;;;;;;;;4237671;28;1378;-65
2022/03/22 00:12:53;;;;;;;;;;;;;;;;;;4237273;27;1011;-64
2022/03/22 00:15:13;;;;;;;;;;;;;;;;;;4237629;28;884;-66
2022/03/22 00:17:34;;;;;;;;;;;;;;;;;;4237448;28;1066;-65
2022/03/22 00:19:55;;;;;;;;;;;;;;;;;;4237092;28;918;-64
2022/03/22 00:22:15;;;;;;;;;;;;;;;;;;4237181;28;935;-64
2022/03/22 00:24:36;;;;;;;;;;;;;;;;;;4237307;28;1030;-63
2022/03/22 00:26:57;;;;;;;;;;;;;;;;;;4237241;28;1980;-64
2022/03/22 00:29:17;;;;;;;;;;;;;;;;;;4237561;28;761;-64
2022/03/22 00:31:39;;;;;;;;;;;;;;;;;;4237408;28;958;-65
2022/03/22 00:34:00;;;;;;;;;;;;;;;;;;4236604;28;935;-64
2022/03/22 00:36:20;;;;;;;;;;;;;;;;;;4237127;28;801;-64
2022/03/22 00:38:41;;;;;;;;;;;;;;;;;;4237056;27;1205;-64
2022/03/22 00:41:02;;;;;;;;;;;;;;;;;;4235851;28;959;-64
2022/03/22 00:43:22;;;;;;;;;;;;;;;;;;4237279;28;736;-64
2022/03/22 00:45:43;;;;;;;;;;;;;;;;;;4237325;28;1980;-63
2022/03/22 00:48:04;;;;;;;;;;;;;;;;;;4237373;28;805;-64
2022/03/22 00:50:26;;;;;;;;;;;;;;;;;;4236958;28;849;-63
2022/03/22 00:52:47;;;;;;;;;;;;;;;;;;4237293;28;862;-63
2022/03/22 00:55:08;;;;;;;;;;;;;;;;;;4236862;28;921;-64
2022/03/22 00:57:29;;;;;;;;;;;;;;;;;;4237284;28;885;-63
2022/03/22 01:00:05;;;;;;;;;;;;;;;;;;4237204;28;1313;-63
2022/03/22 01:02:26;;;;;;;;;;;;;;;;;;4225323;28;1458;-63
2022/03/22 01:04:47;;;;;;;;;;;;;;;;;;4237062;28;902;-63
2022/03/22 01:07:08;;;;;;;;;;;;;;;;;;4235729;28;1994;-64
2022/03/22 01:09:29;;;;;;;;;;;;;;;;;;4236770;27;972;-63
2022/03/22 01:11:51;;;;;;;;;;;;;;;;;;4237185;28;1045;-63
2022/03/22 01:14:11;;;;;;;;;;;;;;;;;;4237434;28;876;-63
2022/03/22 01:16:33;;;;;;;;;;;;;;;;;;4236627;27;1199;-62
2022/03/22 01:18:54;;;;;;;;;;;;;;;;;;4236803;28;1012;-64
2022/03/22 01:21:14;;;;;;;;;;;;;;;;;;4235810;28;840;-63
2022/03/22 01:23:36;;;;;;;;;;;;;;;;;;4236893;28;749;-63
2022/03/22 01:25:56;;;;;;;;;;;;;;;;;;4236747;28;1922;-63
2022/03/22 01:28:17;;;;;;;;;;;;;;;;;;4236795;28;1305;-63
2022/03/22 01:30:38;;;;;;;;;;;;;;;;;;4236416;27;1004;-63
2022/03/22 01:32:59;;;;;;;;;;;;;;;;;;4236450;27;953;-63
2022/03/22 01:35:19;;;;;;;;;;;;;;;;;;4236445;27;1199;-64
2022/03/22 01:37:40;;;;;;;;;;;;;;;;;;4236746;27;1083;-63
2022/03/22 01:40:00;;;;;;;;;;;;;;;;;;4236459;28;878;-63
2022/03/22 01:42:21;;;;;;;;;;;;;;;;;;4236840;28;1028;-63
2022/03/22 01:44:42;;;;;;;;;;;;;;;;;;4236644;27;963;-63
2022/03/22 01:47:03;;;;;;;;;;;;;;;;;;4238832;27;1914;-63
2022/03/22 01:49:24;;;;;;;;;;;;;;;;;;4238374;28;943;-64
2022/03/22 01:51:45;;;;;;;;;;;;;;;;;;4239459;28;939;-63
2022/03/22 01:54:06;;;;;;;;;;;;;;;;;;4239430;28;841;-63
2022/03/22 01:56:26;;;;;;;;;;;;;;;;;;4239717;28;953;-63
2022/03/22 01:58:48;;;;;;;;;;;;;;;;;;4238662;27;953;-63
2022/03/22 02:07:00;;;;;;;;;;;;;;;;;;4198259;28;1985;-63
2022/03/22 02:09:21;;;;;;;;;;;;;;;;;;4223250;28;868;-62
2022/03/22 02:11:42;;;;;;;;;;;;;;;;;;4222163;28;1226;-63
2022/03/22 02:14:03;;;;;;;;;;;;;;;;;;4222334;28;993;-62
2022/03/22 02:16:24;;;;;;;;;;;;;;;;;;4222753;28;964;-63
2022/03/22 02:18:45;;;;;;;;;;;;;;;;;;4222470;28;914;-63
2022/03/22 02:21:06;;;;;;;;;;;;;;;;;;4222218;28;918;-62
2022/03/22 02:23:27;;;;;;;;;;;;;;;;;;4222652;28;882;-63
2022/03/22 02:25:49;;;;;;;;;;;;;;;;;;4222073;28;1976;-63
2022/03/22 02:28:12;;;;;;;;;;;;;;;;;;4222030;28;1079;-63
2022/03/22 02:30:32;;;;;;;;;;;;;;;;;;4221988;28;1046;-64
2022/03/22 02:32:53;;;;;;;;;;;;;;;;;;4221924;28;808;-64
2022/03/22 02:35:13;;;;;;;;;;;;;;;;;;4221924;28;845;-62
2022/03/22 02:37:34;;;;;;;;;;;;;;;;;;4221927;28;1018;-63
2022/03/22 02:39:55;;;;;;;;;;;;;;;;;;4222573;28;932;-63
2022/03/22 02:42:16;;;;;;;;;;;;;;;;;;4221993;28;997;-62
2022/03/22 02:44:36;;;;;;;;;;;;;;;;;;4222325;28;1011;-62
2022/03/22 02:46:57;;;;;;;;;;;;;;;;;;4222093;28;1986;-63
2022/03/22 02:49:17;;;;;;;;;;;;;;;;;;4221916;28;1014;-63
2022/03/22 02:51:38;;;;;;;;;;;;;;;;;;4221773;28;1027;-62
2022/03/22 02:53:59;;;;;;;;;;;;;;;;;;4206476;28;1126;-63
2022/03/22 02:56:19;;;;;;;;;;;;;;;;;;4221113;28;913;-63
2022/03/22 02:58:40;;;;;;;;;;;;;;;;;;4221728;28;1177;-63
2022/03/22 03:01:01;;;;;;;;;;;;;;;;;;4221657;28;934;-63
2022/03/22 03:03:22;;;;;;;;;;;;;;;;;;4221673;28;1086;-63
2022/03/22 03:05:43;;;;;;;;;;;;;;;;;;4221338;28;1024;-63
2022/03/22 03:08:04;;;;;;;;;;;;;;;;;;4222085;28;926;-63
2022/03/22 03:10:24;;;;;;;;;;;;;;;;;;4221312;28;1102;-63
2022/03/22 03:12:45;;;;;;;;;;;;;;;;;;4221385;28;917;-63
2022/03/22 03:15:06;;;;;;;;;;;;;;;;;;4221430;28;1014;-64
2022/03/22 03:17:27;;;;;;;;;;;;;;;;;;4221421;28;946;-63
2022/03/22 03:19:47;;;;;;;;;;;;;;;;;;4221560;28;1033;-63
2022/03/22 03:22:08;;;;;;;;;;;;;;;;;;4221385;28;953;-63
2022/03/22 03:24:29;;;;;;;;;;;;;;;;;;4221963;28;1022;-63
2022/03/22 03:26:50;;;;;;;;;;;;;;;;;;4221634;28;1913;-62
2022/03/22 03:29:10;;;;;;;;;;;;;;;;;;4221577;28;882;-63
2022/03/22 03:31:31;;;;;;;;;;;;;;;;;;4221723;28;841;-63
2022/03/22 03:33:53;;;;;;;;;;;;;;;;;;4221465;28;1012;-63
2022/03/22 03:36:14;;;;;;;;;;;;;;;;;;4221250;28;1080;-63
2022/03/22 03:38:41;;;;;;;;;;;;;;;;;;4221646;28;891;-63
2022/03/22 03:43:40;;;;;;;;;;;;;;;;;;4221262;28;862;-63
2022/03/22 03:48:39;;;;;;;;;;;;;;;;;;4221504;28;918;-62
2022/03/22 03:51:00;;;;;;;;;;;;;;;;;;4221005;28;1060;-63
2022/03/22 03:53:20;;;;;;;;;;;;;;;;;;4209665;28;1665;-63
2022/03/22 03:55:41;;;;;;;;;;;;;;;;;;4204345;28;889;-63
2022/03/22 03:58:02;;;;;;;;;;;;;;;;;;4203787;28;822;-63
2022/03/22 04:00:24;;;;;;;;;;;;;;;;;;4204211;28;858;-63
2022/03/22 04:02:44;;;;;;;;;;;;;;;;;;4203878;28;873;-63
2022/03/22 04:05:05;;;;;;;;;;;;;;;;;;4204190;28;1119;-64
2022/03/22 04:07:25;;;;;;;;;;;;;;;;;;4203716;28;1910;-64
2022/03/22 04:09:46;;;;;;;;;;;;;;;;;;4204885;28;878;-63
2022/03/22 04:12:07;;;;;;;;;;;;;;;;;;4203768;28;1037;-63
2022/03/22 04:14:28;;;;;;;;;;;;;;;;;;4203081;28;890;-64
2022/03/22 04:16:49;;;;;;;;;;;;;;;;;;4204272;28;1051;-63
2022/03/22 04:19:09;;;;;;;;;;;;;;;;;;4204230;28;946;-64
2022/03/22 04:21:30;;;;;;;;;;;;;;;;;;4204442;28;816;-62
2022/03/22 04:23:51;;;;;;;;;;;;;;;;;;4204250;28;943;-63
2022/03/22 04:26:12;;;;;;;;;;;;;;;;;;4204086;28;962;-62
2022/03/22 04:33:50;;;;;;;;;;;;;;;;;;4203805;28;924;-63
2022/03/22 04:36:12;;;;;;;;;;;;;;;;;;4204033;28;1022;-63
2022/03/22 04:38:33;;;;;;;;;;;;;;;;;;4203661;28;937;-63
2022/03/22 04:40:54;;;;;;;;;;;;;;;;;;4209914;28;1393;-63
2022/03/22 04:43:15;;;;;;;;;;;;;;;;;;4220606;28;899;-63
2022/03/22 04:45:36;;;;;;;;;;;;;;;;;;4220236;28;1009;-63
2022/03/22 04:47:57;;;;;;;;;;;;;;;;;;4220339;28;1917;-63
2022/03/22 04:50:18;;;;;;;;;;;;;;;;;;4220677;28;1008;-63
2022/03/22 04:57:55;;;;;;;;;;;;;;;;;;4207504;28;1802;-63
2022/03/22 05:00:16;;;;;;;;;;;;;;;;;;4220491;28;942;-64
2022/03/22 05:02:37;;;;;;;;;;;;;;;;;;4220190;28;1183;-63
2022/03/22 05:04:58;;;;;;;;;;;;;;;;;;4220103;28;1103;-64
2022/03/22 05:07:19;;;;;;;;;;;;;;;;;;4220340;28;1890;-64
2022/03/22 05:09:39;;;;;;;;;;;;;;;;;;4219945;28;1114;-64
2022/03/22 05:12:00;;;;;;;;;;;;;;;;;;4220486;28;1148;-63
2022/03/22 05:14:22;;;;;;;;;;;;;;;;;;4220103;28;926;-64
2022/03/22 05:16:45;;;;;;;;;;;;;;;;;;4220140;28;1568;-63
2022/03/22 05:19:06;;;;;;;;;;;;;;;;;;4218514;28;958;-63
2022/03/22 05:21:26;;;;;;;;;;;;;;;;;;4220383;28;949;-64
2022/03/22 05:23:47;;;;;;;;;;;;;;;;;;4220322;28;1051;-63
2022/03/22 05:26:08;;;;;;;;;;;;;;;;;;4215533;28;849;-63
2022/03/22 05:28:29;;;;;;;;;;;;;;;;;;4218801;28;2000;-64
2022/03/22 05:30:49;;;;;;;;;;;;;;;;;;4218575;28;1123;-63
2022/03/22 05:33:10;;;;;;;;;;;;;;;;;;4218063;28;977;-62
2022/03/22 05:35:31;;;;;;;;;;;;;;;;;;4218884;28;965;-61
2022/03/22 05:37:52;;;;;;;;;;;;;;;;;;4219144;28;809;-62
2022/03/22 05:40:12;;;;;;;;;;;;;;;;;;4218634;28;972;-62
2022/03/22 05:42:34;;;;;;;;;;;;;;;;;;4218890;28;970;-62
2022/03/22 05:44:58;;;;;;;;;;;;;;;;;;4217759;28;1399;-63
2022/03/22 05:47:18;;;;;;;;;;;;;;;;;;4218782;28;1921;-63
2022/03/22 05:49:39;;;;;;;;;;;;;;;;;;4219634;28;1635;-63
2022/03/22 05:52:00;;;;;;;;;;;;;;;;;;4219774;28;1022;-61
2022/03/22 05:54:21;;;;;;;;;;;;;;;;;;4219956;28;913;-61
2022/03/22 05:56:42;;;;;;;;;;;;;;;;;;4219351;28;958;-60
2022/03/22 05:59:03;;;;;;;;;;;;;;;;;;4219752;28;882;-60
2022/03/22 06:01:23;;;;;;;;;;;;;;;;;;4218530;28;1649;-60
2022/03/22 06:03:44;;;;;;;;;;;;;;;;;;4219142;28;1089;-60
2022/03/22 06:06:05;;;;;;;;;;;;;;;;;;4219611;28;981;-61
2022/03/22 06:08:27;;;;;;;;;;;;;;;;;;4219441;28;1917;-60
2022/03/22 06:10:47;;;;;;;;;;;;;;;;;;4219284;28;1302;-61
2022/03/22 06:13:08;;;;;;;;;;;;;;;;;;4219138;28;1063;-61
2022/03/22 06:15:29;;;;;;;;;;;;;;;;;;4219359;28;964;-60
2022/03/22 06:17:50;;;;;;;;;;;;;;;;;;4219448;28;1162;-60
2022/03/22 06:20:10;;;;;;;;;;;;;;;;;;4218419;28;1268;-60
2022/03/22 06:22:31;;;;;;;;;;;;;;;;;;4219226;28;1124;-60
2022/03/22 06:24:52;;;;;;;;;;;;;;;;;;4219483;28;1007;-60
2022/03/22 06:27:17;;;;;;;;;;;;;;;;;;4219328;28;785;-60
2022/03/22 06:29:38;;;;;;;;;;;;;;;;;;4219356;28;1013;-60
2022/03/22 06:31:58;;;;;;;;;;;;;;;;;;4218424;28;1105;-61
2022/03/22 06:34:19;;;;;;;;;;;;;;;;;;4222133;28;809;-60
2022/03/22 06:36:40;;;;;;;;;;;;;;;;;;4221549;28;941;-60
2022/03/22 06:39:00;;;;;;;;;;;;;;;;;;4220617;28;973;-60
2022/03/22 06:41:21;;;;;;;;;;;;;;;;;;4221687;28;1098;-60
2022/03/22 06:43:42;;;;;;;;;;;;;;;;;;4221598;28;989;-60
2022/03/22 06:46:02;;;;;;;;;;;;;;;;;;4221613;28;1020;-61
2022/03/22 06:48:23;;;;;;;;;;;;;;;;;;4220993;28;1909;-61
2022/03/22 06:50:44;;;;;;;;;;;;;;;;;;4221696;28;1230;-61
2022/03/22 06:53:05;;;;;;;;;;;;;;;;;;4220735;28;1020;-60
2022/03/22 06:55:26;;;;;;;;;;;;;;;;;;4221612;28;970;-60
2022/03/22 06:57:46;;;;;;;;;;;;;;;;;;4221060;28;1001;-60
2022/03/22 07:00:08;;;;;;;;;;;;;;;;;;4220156;28;958;-61
2022/03/22 07:02:29;;;;;;;;;;;;;;;;;;4220502;28;1285;-60
2022/03/22 07:04:50;;;;;;;;;;;;;;;;;;4221747;28;967;-60
2022/03/22 07:07:10;;;;;;;;;;;;;;;;;;4220199;28;1168;-60
2022/03/22 07:09:31;;;;;;;;;;;;;;;;;;4220946;28;988;-60
2022/03/22 07:11:52;;;;;;;;;;;;;;;;;;4220707;28;1174;-60
2022/03/22 07:14:12;;;;;;;;;;;;;;;;;;4221826;28;947;-60
2022/03/22 07:16:33;;;;;;;;;;;;;;;;;;4221900;28;1004;-60
2022/03/22 07:18:53;;;;;;;;;;;;;;;;;;4221377;28;1004;-60
2022/03/22 07:21:14;;;;;;;;;;;;;;;;;;4220742;28;822;-60
2022/03/22 07:23:35;;;;;;;;;;;;;;;;;;4221726;28;1110;-60
2022/03/22 07:25:56;;;;;;;;;;;;;;;;;;4216236;28;2128;-60
2022/03/22 07:28:16;;;;;;;;;;;;;;;;;;4215077;28;1984;-60
2022/03/22 07:30:37;;;;;;;;;;;;;;;;;;4221204;28;1115;-60
2022/03/22 07:32:58;;;;;;;;;;;;;;;;;;4221549;28;1749;-61
2022/03/22 07:35:19;;;;;;;;;;;;;;;;;;4221517;28;1011;-60
2022/03/22 07:37:41;;;;;;;;;;;;;;;;;;4221565;28;945;-60
2022/03/22 07:40:02;;;;;;;;;;;;;;;;;;4217807;28;1824;-60
2022/03/22 07:42:24;;;;;;;;;;;;;;;;;;4210748;28;855;-60
2022/03/22 07:44:45;;;;;;;;;;;;;;;;;;4221116;28;1424;-61
2022/03/22 07:47:06;;;;;;;;;;;;;;;;;;4221118;28;1149;-61
2022/03/22 07:54:43;;;;;;;;;;;;;;;;;;4220933;28;1116;-60
2022/03/22 07:57:04;;;;;;;;;;;;;;;;;;4203918;28;1159;-60
2022/03/22 07:59:26;;;;;;;;;;;;;;;;;;4204149;28;992;-60
2022/03/22 08:01:47;;;;;;;;;;;;;;;;;;4203801;28;972;-60
2022/03/22 08:04:08;;;;;;;;;;;;;;;;;;4203973;28;1064;-60
2022/03/22 08:06:31;;;;;;;;;;;;;;;;;;4204260;28;1044;-62
2022/03/22 08:08:52;;;;;;;;;;;;;;;;;;4203356;28;1909;-60
2022/03/22 08:11:13;;;;;;;;;;;;;;;;;;4215372;28;1338;-63
2022/03/22 08:13:34;;;;;;;;;;;;;;;;;;4220148;28;1187;-63
2022/03/22 08:15:54;;;;;;;;;;;;;;;;;;4220149;28;1229;-63
2022/03/22 08:18:17;;;;;;;;;;;;;;;;;;4220331;28;1046;-63
2022/03/22 08:20:37;;;;;;;;;;;;;;;;;;4220402;28;1477;-63
2022/03/22 08:22:59;;;;;;;;;;;;;;;;;;4220716;28;852;-63
2022/03/22 08:25:20;;;;;;;;;;;;;;;;;;4220414;28;1390;-63
2022/03/22 08:27:41;;;;;;;;;;;;;;;;;;4220218;28;1267;-60
2022/03/22 08:30:02;;;;;;;;;;;;;;;;;;4219773;28;1009;-61
2022/03/22 08:32:23;;;;;;;;;;;;;;;;;;4220058;28;1018;-60
2022/03/22 08:34:44;;;;;;;;;;;;;;;;;;4220363;28;956;-61
2022/03/22 08:37:05;;;;;;;;;;;;;;;;;;4220045;28;1143;-62
2022/03/22 08:39:26;;;;;;;;;;;;;;;;;;4220001;28;1092;-61
2022/03/22 08:41:47;;;;;;;;;;;;;;;;;;4218763;28;1328;-60
2022/03/22 08:44:08;;;;;;;;;;;;;;;;;;4220311;28;1363;-61
2022/03/22 08:46:29;;;;;;;;;;;;;;;;;;4219633;28;1432;-61
2022/03/22 08:48:51;;;;;;;;;;;;;;;;;;4220305;28;1914;-62
2022/03/22 08:51:11;;;;;;;;;;;;;;;;;;4220121;28;947;-61
2022/03/22 08:53:32;;;;;;;;;;;;;;;;;;4219989;28;1116;-60
2022/03/22 08:55:53;;;;;;;;;;;;;;;;;;4219357;28;1344;-61
2022/03/22 08:58:15;;;;;;;;;;;;;;;;;;4203252;28;2373;-61
2022/03/22 09:00:36;;;;;;;;;;;;;;;;;;4204192;28;1810;-61
2022/03/22 09:02:57;;;;;;;;;;;;;;;;;;4203929;28;2385;-62
2022/03/22 09:07:57;;;;;;;;;;;;;;;;;;4218253;28;1208;-60
2022/03/22 09:10:18;;;;;;;;;;;;;;;;;;4219763;28;1105;-61
2022/03/22 09:12:39;;;;;;;;;;;;;;;;;;4219547;28;962;-61
2022/03/22 09:15:01;;;;;;;;;;;;;;;;;;4219746;28;1268;-61
2022/03/22 09:17:21;;;;;;;;;;;;;;;;;;4218688;28;1723;-61
2022/03/22 09:19:42;;;;;;;;;;;;;;;;;;4220024;28;1148;-63
2022/03/22 09:22:03;;;;;;;;;;;;;;;;;;4209455;28;1895;-63
2022/03/22 09:24:23;;;;;;;;;;;;;;;;;;4219591;28;1014;-59
2022/03/22 09:26:44;;;;;;;;;;;;;;;;;;4219350;28;1267;-59
2022/03/22 09:29:05;;;;;;;;;;;;;;;;;;4219462;28;1909;-60
2022/03/22 09:31:26;;;;;;;;;;;;;;;;;;4218313;28;1246;-61
2022/03/22 09:33:48;;;;;;;;;;;;;;;;;;4222790;28;981;-59
2022/03/22 09:36:09;;;;;;;;;;;;;;;;;;4200640;28;1022;-62
2022/03/22 09:38:31;;;;;;;;;;;;;;;;;;4201763;28;1274;-59
2022/03/22 09:40:51;;;;;;;;;;;;;;;;;;4210606;28;1172;-61
2022/03/22 09:43:12;;;;;;;;;;;;;;;;;;4219093;28;958;-62
2022/03/22 09:45:33;;;;;;;;;;;;;;;;;;4218020;28;1074;-59
2022/03/22 09:47:54;;;;;;;;;;;;;;;;;;4218901;28;1246;-61
2022/03/22 09:50:14;;;;;;;;;;;;;;;;;;4219351;28;1985;-64
2022/03/22 09:52:35;;;;;;;;;;;;;;;;;;4218852;28;1095;-61
2022/03/22 09:54:56;;;;;;;;;;;;;;;;;;4218423;28;1041;-61
2022/03/22 09:57:17;;;;;;;;;;;;;;;;;;4218883;28;993;-62
2022/03/22 09:59:37;;;;;;;;;;;;;;;;;;4218733;28;1316;-61
2022/03/22 10:01:59;;;;;;;;;;;;;;;;;;4218928;28;1123;-61
2022/03/22 10:04:19;;;;;;;;;;;;;;;;;;4219254;28;862;-60
2022/03/22 10:06:40;;;;;;;;;;;;;;;;;;4220884;28;913;-61
2022/03/22 10:09:01;;;;;;;;;;;;;;;;;;4221699;28;1985;-64
2022/03/22 10:11:22;;;;;;;;;;;;;;;;;;4220597;28;1382;-61
2022/03/22 10:13:42;;;;;;;;;;;;;;;;;;4221729;28;929;-61
2022/03/22 10:16:03;;;;;;;;;;;;;;;;;;4221680;28;1299;-60
2022/03/22 10:18:24;;;;;;;;;;;;;;;;;;4221754;28;1015;-61
2022/03/22 10:20:44;;;;;;;;;;;;;;;;;;4221229;28;1441;-60
2022/03/22 10:23:06;;;;;;;;;;;;;;;;;;4204721;28;979;-61
2022/03/22 10:25:26;;;;;;;;;;;;;;;;;;4210337;28;1079;-60
2022/03/22 10:27:47;;;;;;;;;;;;;;;;;;4221735;28;951;-60
2022/03/22 10:30:08;;;;;;;;;;;;;;;;;;4221238;28;1890;-60
2022/03/22 10:32:29;;;;;;;;;;;;;;;;;;4221617;28;774;-60
2022/03/22 10:34:50;;;;;;;;;;;;;;;;;;4221601;28;994;-60
2022/03/22 10:37:11;;;;;;;;;;;;;;;;;;4221025;28;1178;-60
2022/03/22 10:39:31;;;;;;;;;;;;;;;;;;4221488;28;1186;-61
2022/03/22 10:41:52;;;;;;;;;;;;;;;;;;4204657;28;1021;-60
2022/03/22 10:44:14;;;;;;;;;;;;;;;;;;4204742;28;949;-61
2022/03/22 10:46:34;;;;;;;;;;;;;;;;;;4205244;28;923;-64
2022/03/22 10:48:55;;;;;;;;;;;;;;;;;;4204558;28;1980;-63
2022/03/22 10:51:16;;;;;;;;;;;;;;;;;;4205152;28;1093;-63
2022/03/22 10:53:37;;;;;;;;;;;;;;;;;;4204834;28;1159;-61
2022/03/22 10:55:58;;;;;;;;;;;;;;;;;;4214501;28;1149;-62
2022/03/22 10:58:19;;;;;;;;;;;;;;;;;;4221019;28;986;-62
2022/03/22 11:00:40;;;;;;;;;;;;;;;;;;4219963;28;969;-59
2022/03/22 11:03:00;;;;;;;;;;;;;;;;;;4218254;28;1543;-60
2022/03/22 11:05:21;;;;;;;;;;;;;;;;;;4217884;28;898;-61
2022/03/22 11:07:42;;;;;;;;;;;;;;;;;;4218921;28;984;-61
2022/03/22 11:10:03;;;;;;;;;;;;;;;;;;4219198;28;1909;-61
2022/03/22 11:12:23;;;;;;;;;;;;;;;;;;4219477;28;1273;-61
2022/03/22 11:14:44;;;;;;;;;;;;;;;;;;4220989;28;1186;-61
2022/03/22 11:17:04;;;;;;;;;;;;;;;;;;4228389;27;1315;-62
2022/03/22 11:19:25;;;;;;;;;;;;;;;;;;4218387;28;1216;-62
2022/03/22 11:21:46;;;;;;;;;;;;;;;;;;4218409;28;1048;-62
2022/03/22 11:24:08;;;;;;;;;;;;;;;;;;4219522;28;980;-63
2022/03/22 11:26:29;;;;;;;;;;;;;;;;;;4218036;28;1364;-61
2022/03/22 11:28:50;;;;;;;;;;;;;;;;;;4219315;28;1110;-61
2022/03/22 11:31:10;;;;;;;;;;;;;;;;;;4218896;28;1089;-62
2022/03/22 11:36:09;;;;;;;;;;;;;;;;;;4219103;28;806;-62
2022/03/22 11:38:30;;;;;;;;;;;;;;;;;;4218794;28;939;-61
2022/03/22 11:47:40;;;;;;;;;;;;;;;;;;4224409;28;656;-62
2022/03/22 11:50:01;;;;;;;;;;;;;;;;;;4215430;28;1909;-65
2022/03/22 11:52:21;;;;;;;;;;;;;;;;;;4218348;28;1102;-64
2022/03/22 11:54:41;;;;;;;;;;;;;;;;;;4217891;28;1481;-63
2022/03/22 11:57:02;;;;;;;;;;;;;;;;;;4214967;28;1261;-61
2022/03/22 11:59:23;;;;;;;;;;;;;;;;;;4220836;28;1091;-61
2022/03/22 12:01:44;;;;;;;;;;;;;;;;;;4219955;28;1017;-61
2022/03/22 12:04:05;;;;;;;;;;;;;;;;;;4220496;28;1214;-65
2022/03/22 12:06:26;;;;;;;;;;;;;;;;;;4220245;28;1448;-64
2022/03/22 12:08:46;;;;;;;;;;;;;;;;;;4218875;28;1031;-61
2022/03/22 12:11:07;;;;;;;;;;;;;;;;;;4217194;28;1886;-61
2022/03/22 12:13:30;;;;;;;;;;;;;;;;;;4218413;28;1189;-62
2022/03/22 12:15:51;;;;;;;;;;;;;;;;;;4219319;28;1249;-60
2022/03/22 12:18:12;;;;;;;;;;;;;;;;;;4219785;28;1036;-60
2022/03/22 12:20:32;;;;;;;;;;;;;;;;;;4218776;28;1795;-61
2022/03/22 12:22:55;;;;;;;;;;;;;;;;;;4218204;28;1100;-61
2022/03/22 12:25:17;;;;;;;;;;;;;;;;;;4220390;28;1116;-62
2022/03/22 12:27:37;;;;;;;;;;;;;;;;;;4220069;28;970;-62
2022/03/22 12:29:58;;;;;;;;;;;;;;;;;;4219107;28;1982;-60
2022/03/22 12:32:20;;;;;;;;;;;;;;;;;;4220230;28;1154;-63
2022/03/22 12:34:41;;;;;;;;;;;;;;;;;;4220300;28;877;-65
2022/03/22 12:37:01;;;;;;;;;;;;;;;;;;4220310;28;863;-62
2022/03/22 12:39:22;;;;;;;;;;;;;;;;;;4220232;28;1112;-62
2022/03/22 12:41:43;;;;;;;;;;;;;;;;;;4220102;28;1073;-61
2022/03/22 12:44:04;;;;;;;;;;;;;;;;;;4220510;28;898;-61
2022/03/22 12:46:24;;;;;;;;;;;;;;;;;;4220188;28;964;-60
2022/03/22 12:48:50;;;;;;;;;;;;;;;;;;4219685;28;1018;-61
2022/03/22 12:51:11;;;;;;;;;;;;;;;;;;4219640;28;2010;-65
2022/03/22 12:53:32;;;;;;;;;;;;;;;;;;4219992;28;866;-62
2022/03/22 12:55:53;;;;;;;;;;;;;;;;;;4219578;28;1315;-62
2022/03/22 12:58:13;;;;;;;;;;;;;;;;;;4219536;28;969;-62
2022/03/22 13:00:34;;;;;;;;;;;;;;;;;;4219479;28;1096;-62
2022/03/22 13:02:55;;;;;;;;;;;;;;;;;;4218378;28;1339;-62
2022/03/22 13:05:15;;;;;;;;;;;;;;;;;;4235501;28;1310;-62
2022/03/22 13:07:36;;;;;;;;;;;;;;;;;;4236148;27;1123;-61
2022/03/22 13:12:35;;;;;;;;;;;;;;;;;;4219578;28;1158;-62
2022/03/22 13:15:05;;;;;;;;;;;;;;;;;;4219181;28;1177;-62
2022/03/22 13:17:25;;;;;;;;;;;;;;;;;;4219941;28;833;-62
2022/03/22 13:19:46;;;;;;;;;;;;;;;;;;4219493;28;1402;-62
2022/03/22 13:22:06;;;;;;;;;;;;;;;;;;4219023;28;827;-61
2022/03/22 13:24:27;;;;;;;;;;;;;;;;;;4219363;28;1006;-62
2022/03/22 13:26:48;;;;;;;;;;;;;;;;;;4202699;28;1040;-62
2022/03/22 13:29:08;;;;;;;;;;;;;;;;;;4202491;28;996;-61
2022/03/22 13:31:29;;;;;;;;;;;;;;;;;;4202507;28;1906;-62
2022/03/22 13:33:50;;;;;;;;;;;;;;;;;;4202654;28;967;-63
2022/03/22 13:36:10;;;;;;;;;;;;;;;;;;4201557;28;847;-62
2022/03/22 13:38:31;;;;;;;;;;;;;;;;;;4202234;28;981;-62
2022/03/22 13:40:53;;;;;;;;;;;;;;;;;;4212169;28;1200;-61
2022/03/22 13:43:13;;;;;;;;;;;;;;;;;;4221892;28;1310;-62
2022/03/22 13:45:34;;;;;;;;;;;;;;;;;;4221947;28;1188;-62
2022/03/22 13:47:55;;;;;;;;;;;;;;;;;;4222450;28;966;-62
2022/03/22 13:50:16;;;;;;;;;;;;;;;;;;4221944;28;1909;-62
2022/03/22 13:52:37;;;;;;;;;;;;;;;;;;4221809;28;1099;-63
2022/03/22 13:54:57;;;;;;;;;;;;;;;;;;4222120;28;1270;-61
2022/03/22 13:57:18;;;;;;;;;;;;;;;;;;4221668;28;1290;-61
2022/03/22 13:59:39;;;;;;;;;;;;;;;;;;4221506;28;1080;-62
2022/03/22 14:02:01;;;;;;;;;;;;;;;;;;4221762;28;1215;-62
2022/03/22 14:04:22;;;;;;;;;;;;;;;;;;4221739;28;1155;-62
2022/03/22 14:06:42;;;;;;;;;;;;;;;;;;4221913;28;976;-62
2022/03/22 14:09:03;;;;;;;;;;;;;;;;;;4221737;28;998;-61
2022/03/22 14:11:24;;;;;;;;;;;;;;;;;;4221016;28;1906;-62
2022/03/22 14:13:45;;;;;;;;;;;;;;;;;;4221823;28;955;-61
2022/03/22 14:16:05;;;;;;;;;;;;;;;;;;4221435;28;917;-61
2022/03/22 14:18:26;;;;;;;;;;;;;;;;;;4220998;28;946;-62
2022/03/22 14:20:46;;;;;;;;;;;;;;;;;;4221043;28;1503;-62
2022/03/22 14:23:07;;;;;;;;;;;;;;;;;;4221504;28;1040;-62
2022/03/22 14:25:28;;;;;;;;;;;;;;;;;;4217943;28;1238;-62
2022/03/22 14:27:48;;;;;;;;;;;;;;;;;;4219557;28;1310;-61
2022/03/22 14:30:14;;;;;;;;;;;;;;;;;;4219593;28;953;-61
2022/03/22 14:32:35;;;;;;;;;;;;;;;;;;4220712;28;990;-61
2022/03/22 14:37:35;;;;;;;;;;;;;;;;;;4220389;28;978;-62
2022/03/22 14:39:55;;;;;;;;;;;;;;;;;;4220783;28;962;-61
2022/03/22 14:42:16;;;;;;;;;;;;;;;;;;4221644;28;954;-62
2022/03/22 14:44:39;;;;;;;;;;;;;;;;;;4221087;28;1307;-61
2022/03/22 14:47:00;;;;;;;;;;;;;;;;;;4220338;28;1417;-61
2022/03/22 14:49:21;;;;;;;;;;;;;;;;;;4221647;28;979;-61
2022/03/22 14:54:20;;;;;;;;;;;;;;;;;;4233697;28;1308;-61
2022/03/22 14:59:20;;;;;;;;;;;;;;;;;;4219983;28;2397;-61
2022/03/22 15:01:41;;;;;;;;;;;;;;;;;;4202600;28;1108;-60
2022/03/22 15:04:02;;;;;;;;;;;;;;;;;;4202833;28;954;-61
2022/03/22 15:06:23;;;;;;;;;;;;;;;;;;4202802;28;991;-62
2022/03/22 15:08:45;;;;;;;;;;;;;;;;;;4202043;28;922;-61
2022/03/22 15:11:06;;;;;;;;;;;;;;;;;;4212798;28;1914;-61
2022/03/22 15:13:26;;;;;;;;;;;;;;;;;;4218440;28;1128;-61
2022/03/22 15:15:47;;;;;;;;;;;;;;;;;;4220143;28;1248;-61
2022/03/22 15:18:08;;;;;;;;;;;;;;;;;;4219670;28;1064;-62
2022/03/22 15:20:29;;;;;;;;;;;;;;;;;;4219189;28;1397;-61
2022/03/22 15:22:50;;;;;;;;;;;;;;;;;;4218767;28;1172;-61
2022/03/22 15:25:11;;;;;;;;;;;;;;;;;;4219089;28;1411;-64
2022/03/22 15:27:31;;;;;;;;;;;;;;;;;;4218928;28;1970;-63
2022/03/22 15:29:52;;;;;;;;;;;;;;;;;;4216829;28;1713;-63
2022/03/22 15:32:13;;;;;;;;;;;;;;;;;;4219070;28;1980;-66
2022/03/22 15:34:34;;;;;;;;;;;;;;;;;;4218465;28;1303;-63
2022/03/22 15:36:55;;;;;;;;;;;;;;;;;;4216898;28;1559;-63
2022/03/22 15:39:15;;;;;;;;;;;;;;;;;;4219177;28;1019;-63
2022/03/22 15:41:36;;;;;;;;;;;;;;;;;;4218554;28;1390;-64
2022/03/22 15:43:57;;;;;;;;;;;;;;;;;;4201847;28;1244;-63
2022/03/22 15:46:18;;;;;;;;;;;;;;;;;;4201719;28;1023;-62
2022/03/22 15:48:38;;;;;;;;;;;;;;;;;;4201637;28;971;-62
2022/03/22 15:50:59;;;;;;;;;;;;;;;;;;4216547;28;1973;-62
2022/03/22 15:53:20;;;;;;;;;;;;;;;;;;4218530;28;1111;-62
2022/03/22 15:55:41;;;;;;;;;;;;;;;;;;4218627;28;966;-62
2022/03/22 15:58:02;;;;;;;;;;;;;;;;;;4217881;28;1739;-62
2022/03/22 16:00:23;;;;;;;;;;;;;;;;;;4218645;28;1115;-62
2022/03/22 16:02:45;;;;;;;;;;;;;;;;;;4219342;28;824;-62
2022/03/22 16:05:06;;;;;;;;;;;;;;;;;;4218152;28;1026;-62
2022/03/22 16:07:27;;;;;;;;;;;;;;;;;;4219209;28;1007;-61
2022/03/22 16:09:47;;;;;;;;;;;;;;;;;;4217169;28;968;-62
2022/03/22 16:12:08;;;;;;;;;;;;;;;;;;4200307;28;1989;-63
2022/03/22 16:14:29;;;;;;;;;;;;;;;;;;4200056;28;1214;-62
2022/03/22 16:16:51;;;;;;;;;;;;;;;;;;4227976;28;1122;-62
2022/03/22 16:19:12;;;;;;;;;;;;;;;;;;4200985;28;881;-63
2022/03/22 16:21:33;;;;;;;;;;;;;;;;;;4226520;28;1447;-63
2022/03/22 16:24:06;;;;;;;;;;;;;;;;;;4201360;28;838;-66
2022/03/22 16:26:49;;;;;;;;;;;;;;;;;;4199262;28;955;-67
2022/03/22 16:29:09;;;;;;;;;;;;;;;;;;4200749;28;1276;-65
2022/03/22 16:31:30;;;;;;;;;;;;;;;;;;4200886;28;1914;-63
2022/03/22 16:36:47;;;;;;;;;;;;;;;;;;4204010;28;1352;-63
2022/03/22 16:39:23;;;;;;;;;;;;;;;;;;4216811;28;1266;-66
2022/03/22 16:41:44;;;;;;;;;;;;;;;;;;4217404;28;1292;-65
2022/03/22 16:44:05;;;;;;;;;;;;;;;;;;4199995;28;1669;-68
2022/03/22 16:46:29;;;;;;;;;;;;;;;;;;4198525;28;894;-62
2022/03/22 16:48:50;;;;;;;;;;;;;;;;;;4198811;28;1233;-63
2022/03/22 16:51:11;;;;;;;;;;;;;;;;;;4211705;28;1933;-62
2022/03/22 16:53:32;;;;;;;;;;;;;;;;;;4210696;28;1753;-63
2022/03/22 16:55:53;;;;;;;;;;;;;;;;;;4211529;28;2094;-67
2022/03/22 16:58:14;;;;;;;;;;;;;;;;;;4212314;28;1670;-65
2022/03/22 17:00:35;;;;;;;;;;;;;;;;;;4213948;28;1631;-62
2022/03/22 17:02:55;;;;;;;;;;;;;;;;;;4212695;28;1352;-63
2022/03/22 17:05:19;;;;;;;;;;;;;;;;;;4211954;28;1388;-63
2022/03/22 17:07:40;;;;;;;;;;;;;;;;;;4214908;28;1273;-63
2022/03/22 17:10:00;;;;;;;;;;;;;;;;;;4214328;28;1416;-64
2022/03/22 17:12:21;;;;;;;;;;;;;;;;;;4212932;28;1902;-64
2022/03/22 17:14:41;;;;;;;;;;;;;;;;;;4215303;28;932;-62
2022/03/22 17:17:03;;;;;;;;;;;;;;;;;;4214448;28;965;-62
2022/03/22 17:19:25;;;;;;;;;;;;;;;;;;4215051;28;1001;-62